sensor_id;sensor_type;location;lat;lon;timestamp;P1;durP1;ratioP1;P2;durP2;ratioP2
3726;SDS011;1879;45.876;12.300;2024-01-15T00:01:07;78.27;;;69.90;;
3726;SDS011;1879;45.876;12.300;2024-01-15T00:03:36;81.20;;;72.13;;
3726;SDS011;1879;45.876;12.300;2024-01-15T00:06:03;80.97;;;72.23;;
3726;SDS011;1879;45.876;12.300;2024-01-15T00:08:30;75.60;;;67.83;;
3726;SDS011;1879;45.876;12.300;2024-01-15T00:10:57;86.97;;;77.57;;
3726;SDS011;1879;45.876;12.300;2024-01-15T00:13:24;78.73;;;70.33;;
3726;SDS011;1879;45.876;12.300;2024-01-15T00:15:51;89.07;;;79.47;;
3726;SDS011;1879;45.876;12.300;2024-01-15T00:18:18;88.93;;;79.50;;
3726;SDS011;1879;45.876;12.300;2024-01-15T00:20:46;96.33;;;85.73;;
3726;SDS011;1879;45.876;12.300;2024-01-15T00:23:13;98.60;;;88.40;;
3726;SDS011;1879;45.876;12.300;2024-01-15T00:25:40;99.43;;;89.10;;
3726;SDS011;1879;45.876;12.300;2024-01-15T00:28:07;93.23;;;83.60;;
3726;SDS011;1879;45.876;12.300;2024-01-15T00:30:34;100.70;;;90.40;;
3726;SDS011;1879;45.876;12.300;2024-01-15T00:33:01;95.70;;;85.80;;
3726;SDS011;1879;45.876;12.300;2024-01-15T00:35:28;90.83;;;81.07;;
3726;SDS011;1879;45.876;12.300;2024-01-15T00:37:57;95.83;;;86.07;;
3726;SDS011;1879;45.876;12.300;2024-01-15T00:40:24;90.27;;;80.77;;
3726;SDS011;1879;45.876;12.300;2024-01-15T00:42:51;94.93;;;85.33;;
3726;SDS011;1879;45.876;12.300;2024-01-15T00:45:18;92.03;;;82.47;;
3726;SDS011;1879;45.876;12.300;2024-01-15T00:47:44;90.13;;;80.97;;
3726;SDS011;1879;45.876;12.300;2024-01-15T00:50:11;97.27;;;87.37;;
3726;SDS011;1879;45.876;12.300;2024-01-15T00:52:38;85.67;;;76.73;;
3726;SDS011;1879;45.876;12.300;2024-01-15T00:55:07;91.10;;;81.83;;
3726;SDS011;1879;45.876;12.300;2024-01-15T00:57:34;95.17;;;85.07;;
3726;SDS011;1879;45.876;12.300;2024-01-15T01:00:01;85.63;;;77.10;;
3726;SDS011;1879;45.876;12.300;2024-01-15T01:02:29;67.23;;;60.13;;
3726;SDS011;1879;45.876;12.300;2024-01-15T01:04:56;62.20;;;55.60;;
3726;SDS011;1879;45.876;12.300;2024-01-15T01:07:23;57.13;;;50.80;;
3726;SDS011;1879;45.876;12.300;2024-01-15T01:09:49;58.53;;;52.70;;
3726;SDS011;1879;45.876;12.300;2024-01-15T01:12:18;58.40;;;52.50;;
3726;SDS011;1879;45.876;12.300;2024-01-15T01:14:45;52.50;;;47.03;;
3726;SDS011;1879;45.876;12.300;2024-01-15T01:17:11;51.53;;;45.10;;
3726;SDS011;1879;45.876;12.300;2024-01-15T01:19:38;46.87;;;42.00;;
3726;SDS011;1879;45.876;12.300;2024-01-15T01:22:05;45.63;;;40.10;;
3726;SDS011;1879;45.876;12.300;2024-01-15T01:24:32;41.33;;;37.23;;
3726;SDS011;1879;45.876;12.300;2024-01-15T01:26:59;40.70;;;36.67;;
3726;SDS011;1879;45.876;12.300;2024-01-15T01:29:28;42.13;;;36.77;;
3726;SDS011;1879;45.876;12.300;2024-01-15T01:31:55;47.60;;;42.70;;
3726;SDS011;1879;45.876;12.300;2024-01-15T01:34:22;58.43;;;52.43;;
3726;SDS011;1879;45.876;12.300;2024-01-15T01:36:49;65.00;;;56.43;;
3726;SDS011;1879;45.876;12.300;2024-01-15T01:39:16;61.20;;;54.80;;
3726;SDS011;1879;45.876;12.300;2024-01-15T01:41:43;65.63;;;58.77;;
3726;SDS011;1879;45.876;12.300;2024-01-15T01:44:10;67.37;;;60.17;;
3726;SDS011;1879;45.876;12.300;2024-01-15T01:46:38;69.97;;;62.77;;
3726;SDS011;1879;45.876;12.300;2024-01-15T01:49:06;70.80;;;63.20;;
3726;SDS011;1879;45.876;12.300;2024-01-15T01:51:33;77.17;;;69.47;;
3726;SDS011;1879;45.876;12.300;2024-01-15T01:54:02;74.93;;;67.00;;
3726;SDS011;1879;45.876;12.300;2024-01-15T01:56:30;70.60;;;63.20;;
3726;SDS011;1879;45.876;12.300;2024-01-15T01:58:57;72.17;;;64.87;;
3726;SDS011;1879;45.876;12.300;2024-01-15T02:01:24;66.60;;;59.60;;
3726;SDS011;1879;45.876;12.300;2024-01-15T02:03:53;75.57;;;67.77;;
3726;SDS011;1879;45.876;12.300;2024-01-15T02:06:21;72.00;;;64.80;;
3726;SDS011;1879;45.876;12.300;2024-01-15T02:08:49;72.87;;;62.50;;
3726;SDS011;1879;45.876;12.300;2024-01-15T02:11:16;74.40;;;66.83;;
3726;SDS011;1879;45.876;12.300;2024-01-15T02:13:43;70.80;;;63.20;;
3726;SDS011;1879;45.876;12.300;2024-01-15T02:16:10;72.70;;;65.23;;
3726;SDS011;1879;45.876;12.300;2024-01-15T02:18:40;73.13;;;65.57;;
3726;SDS011;1879;45.876;12.300;2024-01-15T02:21:09;68.50;;;61.80;;
3726;SDS011;1879;45.876;12.300;2024-01-15T02:23:38;68.97;;;61.60;;
3726;SDS011;1879;45.876;12.300;2024-01-15T02:26:05;74.27;;;63.23;;
3726;SDS011;1879;45.876;12.300;2024-01-15T02:28:32;63.70;;;57.27;;
3726;SDS011;1879;45.876;12.300;2024-01-15T02:30:59;64.07;;;57.27;;
3726;SDS011;1879;45.876;12.300;2024-01-15T02:33:26;68.00;;;61.00;;
3726;SDS011;1879;45.876;12.300;2024-01-15T02:35:53;63.10;;;56.73;;
3726;SDS011;1879;45.876;12.300;2024-01-15T02:38:20;63.57;;;56.87;;
3726;SDS011;1879;45.876;12.300;2024-01-15T02:40:49;57.97;;;51.83;;
3726;SDS011;1879;45.876;12.300;2024-01-15T02:43:16;57.10;;;50.97;;
3726;SDS011;1879;45.876;12.300;2024-01-15T02:45:44;56.47;;;50.67;;
3726;SDS011;1879;45.876;12.300;2024-01-15T02:48:11;54.70;;;49.00;;
3726;SDS011;1879;45.876;12.300;2024-01-15T02:50:38;52.80;;;47.43;;
3726;SDS011;1879;45.876;12.300;2024-01-15T02:53:05;53.47;;;48.17;;
3726;SDS011;1879;45.876;12.300;2024-01-15T02:55:32;53.20;;;47.60;;
3726;SDS011;1879;45.876;12.300;2024-01-15T02:58:00;56.67;;;50.67;;
3726;SDS011;1879;45.876;12.300;2024-01-15T03:00:27;60.90;;;54.40;;
3726;SDS011;1879;45.876;12.300;2024-01-15T03:02:54;61.70;;;55.10;;
3726;SDS011;1879;45.876;12.300;2024-01-15T03:05:21;63.97;;;56.93;;
3726;SDS011;1879;45.876;12.300;2024-01-15T03:07:48;60.10;;;53.97;;
3726;SDS011;1879;45.876;12.300;2024-01-15T03:10:15;64.10;;;57.40;;
3726;SDS011;1879;45.876;12.300;2024-01-15T03:12:42;64.33;;;57.33;;
3726;SDS011;1879;45.876;12.300;2024-01-15T03:15:11;64.53;;;57.73;;
3726;SDS011;1879;45.876;12.300;2024-01-15T03:17:38;62.77;;;56.03;;
3726;SDS011;1879;45.876;12.300;2024-01-15T03:20:05;65.10;;;58.10;;
3726;SDS011;1879;45.876;12.300;2024-01-15T03:22:33;66.13;;;59.30;;
3726;SDS011;1879;45.876;12.300;2024-01-15T03:24:59;64.43;;;57.73;;
3726;SDS011;1879;45.876;12.300;2024-01-15T03:27:26;59.90;;;53.80;;
3726;SDS011;1879;45.876;12.300;2024-01-15T03:29:53;61.40;;;54.90;;
3726;SDS011;1879;45.876;12.300;2024-01-15T03:32:21;65.37;;;58.40;;
3726;SDS011;1879;45.876;12.300;2024-01-15T03:34:48;64.83;;;58.23;;
3726;SDS011;1879;45.876;12.300;2024-01-15T03:37:17;66.83;;;59.60;;
3726;SDS011;1879;45.876;12.300;2024-01-15T03:39:44;67.50;;;60.60;;
3726;SDS011;1879;45.876;12.300;2024-01-15T03:42:11;69.27;;;61.97;;
3726;SDS011;1879;45.876;12.300;2024-01-15T03:44:39;63.43;;;56.60;;
3726;SDS011;1879;45.876;12.300;2024-01-15T03:47:06;68.73;;;61.73;;
3726;SDS011;1879;45.876;12.300;2024-01-15T03:49:34;71.07;;;63.33;;
3726;SDS011;1879;45.876;12.300;2024-01-15T03:52:01;71.83;;;61.27;;
3726;SDS011;1879;45.876;12.300;2024-01-15T03:54:28;66.37;;;59.53;;
3726;SDS011;1879;45.876;12.300;2024-01-15T03:56:55;66.67;;;59.23;;
3726;SDS011;1879;45.876;12.300;2024-01-15T03:59:22;71.80;;;64.50;;
3726;SDS011;1879;45.876;12.300;2024-01-15T04:01:49;70.87;;;63.27;;
3726;SDS011;1879;45.876;12.300;2024-01-15T04:04:16;69.40;;;62.20;;
3726;SDS011;1879;45.876;12.300;2024-01-15T04:06:45;74.57;;;66.83;;
3726;SDS011;1879;45.876;12.300;2024-01-15T04:09:12;72.40;;;64.80;;
3726;SDS011;1879;45.876;12.300;2024-01-15T04:11:40;73.17;;;65.50;;
3726;SDS011;1879;45.876;12.300;2024-01-15T04:14:07;70.83;;;63.67;;
3726;SDS011;1879;45.876;12.300;2024-01-15T04:16:34;71.67;;;64.03;;
3726;SDS011;1879;45.876;12.300;2024-01-15T04:19:00;67.80;;;60.77;;
3726;SDS011;1879;45.876;12.300;2024-01-15T04:21:27;66.70;;;59.43;;
3726;SDS011;1879;45.876;12.300;2024-01-15T04:23:56;63.67;;;56.50;;
3726;SDS011;1879;45.876;12.300;2024-01-15T04:26:23;59.17;;;53.13;;
3726;SDS011;1879;45.876;12.300;2024-01-15T04:28:49;59.67;;;53.53;;
3726;SDS011;1879;45.876;12.300;2024-01-15T04:31:22;61.23;;;54.73;;
3726;SDS011;1879;45.876;12.300;2024-01-15T04:33:50;61.00;;;54.57;;
3726;SDS011;1879;45.876;12.300;2024-01-15T04:36:19;57.57;;;51.50;;
3726;SDS011;1879;45.876;12.300;2024-01-15T04:38:46;58.80;;;52.63;;
3726;SDS011;1879;45.876;12.300;2024-01-15T04:41:15;57.60;;;51.50;;
3726;SDS011;1879;45.876;12.300;2024-01-15T04:43:42;59.73;;;53.53;;
3726;SDS011;1879;45.876;12.300;2024-01-15T04:46:09;59.87;;;53.70;;
3726;SDS011;1879;45.876;12.300;2024-01-15T04:48:36;57.83;;;51.77;;
3726;SDS011;1879;45.876;12.300;2024-01-15T04:51:04;59.13;;;51.20;;
3726;SDS011;1879;45.876;12.300;2024-01-15T04:53:31;55.93;;;49.87;;
3726;SDS011;1879;45.876;12.300;2024-01-15T04:55:59;57.13;;;50.20;;
3726;SDS011;1879;45.876;12.300;2024-01-15T04:58:27;58.80;;;52.40;;
3726;SDS011;1879;45.876;12.300;2024-01-15T05:00:54;59.90;;;52.87;;
3726;SDS011;1879;45.876;12.300;2024-01-15T05:03:21;55.50;;;49.70;;
3726;SDS011;1879;45.876;12.300;2024-01-15T05:05:48;57.73;;;51.10;;
3726;SDS011;1879;45.876;12.300;2024-01-15T05:08:15;56.30;;;50.20;;
3726;SDS011;1879;45.876;12.300;2024-01-15T05:10:42;55.73;;;49.90;;
3726;SDS011;1879;45.876;12.300;2024-01-15T05:13:10;55.07;;;49.40;;
3726;SDS011;1879;45.876;12.300;2024-01-15T05:15:38;62.37;;;55.47;;
3726;SDS011;1879;45.876;12.300;2024-01-15T05:18:05;59.93;;;53.80;;
3726;SDS011;1879;45.876;12.300;2024-01-15T05:20:32;57.50;;;51.60;;
3726;SDS011;1879;45.876;12.300;2024-01-15T05:22:59;61.17;;;54.97;;
3726;SDS011;1879;45.876;12.300;2024-01-15T05:25:26;58.83;;;52.60;;
3726;SDS011;1879;45.876;12.300;2024-01-15T05:27:53;62.67;;;54.97;;
3726;SDS011;1879;45.876;12.300;2024-01-15T05:30:20;60.63;;;54.33;;
3726;SDS011;1879;45.876;12.300;2024-01-15T05:32:48;62.50;;;53.87;;
3726;SDS011;1879;45.876;12.300;2024-01-15T05:35:15;59.03;;;52.80;;
3726;SDS011;1879;45.876;12.300;2024-01-15T05:37:43;60.23;;;53.90;;
3726;SDS011;1879;45.876;12.300;2024-01-15T05:40:11;57.37;;;51.27;;
3726;SDS011;1879;45.876;12.300;2024-01-15T05:42:38;63.53;;;56.83;;
3726;SDS011;1879;45.876;12.300;2024-01-15T05:45:06;54.60;;;48.83;;
3726;SDS011;1879;45.876;12.300;2024-01-15T05:47:33;49.40;;;43.75;;
3726;SDS011;1879;45.876;12.300;2024-01-15T05:50:01;47.33;;;42.80;;
3726;SDS011;1879;45.876;12.300;2024-01-15T05:52:28;40.67;;;36.53;;
3726;SDS011;1879;45.876;12.300;2024-01-15T05:54:55;40.03;;;36.10;;
3726;SDS011;1879;45.876;12.300;2024-01-15T05:57:22;40.37;;;36.00;;
3726;SDS011;1879;45.876;12.300;2024-01-15T05:59:49;41.40;;;37.30;;
3726;SDS011;1879;45.876;12.300;2024-01-15T06:02:16;42.07;;;37.60;;
3726;SDS011;1879;45.876;12.300;2024-01-15T06:04:43;39.43;;;35.53;;
3726;SDS011;1879;45.876;12.300;2024-01-15T06:07:11;42.13;;;37.97;;
3726;SDS011;1879;45.876;12.300;2024-01-15T06:09:38;43.17;;;38.63;;
3726;SDS011;1879;45.876;12.300;2024-01-15T06:12:06;43.25;;;38.72;;
3726;SDS011;1879;45.876;12.300;2024-01-15T06:14:34;43.00;;;38.70;;
3726;SDS011;1879;45.876;12.300;2024-01-15T06:17:01;39.33;;;35.03;;
3726;SDS011;1879;45.876;12.300;2024-01-15T06:19:28;41.37;;;37.20;;
3726;SDS011;1879;45.876;12.300;2024-01-15T06:21:55;39.17;;;35.07;;
3726;SDS011;1879;45.876;12.300;2024-01-15T06:24:23;43.83;;;37.83;;
3726;SDS011;1879;45.876;12.300;2024-01-15T06:26:50;37.60;;;33.90;;
3726;SDS011;1879;45.876;12.300;2024-01-15T06:29:17;35.70;;;32.20;;
3726;SDS011;1879;45.876;12.300;2024-01-15T06:31:44;38.93;;;35.03;;
3726;SDS011;1879;45.876;12.300;2024-01-15T06:34:11;36.17;;;32.47;;
3726;SDS011;1879;45.876;12.300;2024-01-15T06:36:38;38.50;;;34.50;;
3726;SDS011;1879;45.876;12.300;2024-01-15T06:39:05;39.47;;;35.43;;
3726;SDS011;1879;45.876;12.300;2024-01-15T06:41:33;38.00;;;34.10;;
3726;SDS011;1879;45.876;12.300;2024-01-15T06:44:00;41.03;;;36.63;;
3726;SDS011;1879;45.876;12.300;2024-01-15T06:46:27;40.40;;;36.37;;
3726;SDS011;1879;45.876;12.300;2024-01-15T06:48:54;39.42;;;34.45;;
3726;SDS011;1879;45.876;12.300;2024-01-15T06:51:21;43.00;;;36.43;;
3726;SDS011;1879;45.876;12.300;2024-01-15T06:53:48;40.03;;;35.83;;
3726;SDS011;1879;45.876;12.300;2024-01-15T06:56:15;41.57;;;37.40;;
3726;SDS011;1879;45.876;12.300;2024-01-15T06:58:43;41.43;;;36.80;;
3726;SDS011;1879;45.876;12.300;2024-01-15T07:01:10;37.20;;;33.43;;
3726;SDS011;1879;45.876;12.300;2024-01-15T07:03:37;37.87;;;34.00;;
3726;SDS011;1879;45.876;12.300;2024-01-15T07:06:05;38.67;;;34.57;;
3726;SDS011;1879;45.876;12.300;2024-01-15T07:08:32;45.57;;;39.23;;
3726;SDS011;1879;45.876;12.300;2024-01-15T07:10:59;61.23;;;55.33;;
3726;SDS011;1879;45.876;12.300;2024-01-15T07:13:26;45.63;;;40.90;;
3726;SDS011;1879;45.876;12.300;2024-01-15T07:15:54;40.10;;;35.87;;
3726;SDS011;1879;45.876;12.300;2024-01-15T07:18:21;46.50;;;41.50;;
3726;SDS011;1879;45.876;12.300;2024-01-15T07:20:48;43.70;;;39.30;;
3726;SDS011;1879;45.876;12.300;2024-01-15T07:23:15;38.37;;;32.00;;
3726;SDS011;1879;45.876;12.300;2024-01-15T07:25:42;30.60;;;26.77;;
3726;SDS011;1879;45.876;12.300;2024-01-15T07:28:09;32.70;;;29.30;;
3726;SDS011;1879;45.876;12.300;2024-01-15T07:30:36;35.37;;;29.87;;
3726;SDS011;1879;45.876;12.300;2024-01-15T07:33:05;36.63;;;32.33;;
3726;SDS011;1879;45.876;12.300;2024-01-15T07:35:32;36.73;;;32.93;;
3726;SDS011;1879;45.876;12.300;2024-01-15T07:37:59;35.60;;;32.00;;
3726;SDS011;1879;45.876;12.300;2024-01-15T07:40:26;46.40;;;38.20;;
3726;SDS011;1879;45.876;12.300;2024-01-15T07:42:53;45.83;;;41.07;;
3726;SDS011;1879;45.876;12.300;2024-01-15T07:45:20;49.63;;;44.37;;
3726;SDS011;1879;45.876;12.300;2024-01-15T07:47:46;47.27;;;42.47;;
3726;SDS011;1879;45.876;12.300;2024-01-15T07:50:15;41.90;;;37.87;;
3726;SDS011;1879;45.876;12.300;2024-01-15T07:52:42;41.13;;;36.50;;
3726;SDS011;1879;45.876;12.300;2024-01-15T07:55:09;45.20;;;40.60;;
3726;SDS011;1879;45.876;12.300;2024-01-15T07:57:36;51.37;;;46.20;;
3726;SDS011;1879;45.876;12.300;2024-01-15T08:00:03;43.20;;;38.77;;
3726;SDS011;1879;45.876;12.300;2024-01-15T08:02:31;47.53;;;42.63;;
3726;SDS011;1879;45.876;12.300;2024-01-15T08:04:58;47.53;;;42.63;;
3726;SDS011;1879;45.876;12.300;2024-01-15T08:07:26;44.30;;;40.00;;
3726;SDS011;1879;45.876;12.300;2024-01-15T08:09:53;44.10;;;39.27;;
3726;SDS011;1879;45.876;12.300;2024-01-15T08:12:20;45.93;;;41.13;;
3726;SDS011;1879;45.876;12.300;2024-01-15T08:14:47;47.13;;;41.73;;
3726;SDS011;1879;45.876;12.300;2024-01-15T08:17:14;45.33;;;40.43;;
3726;SDS011;1879;45.876;12.300;2024-01-15T08:19:42;51.87;;;45.40;;
3726;SDS011;1879;45.876;12.300;2024-01-15T08:22:09;44.70;;;39.93;;
3726;SDS011;1879;45.876;12.300;2024-01-15T08:24:37;45.73;;;41.00;;
3726;SDS011;1879;45.876;12.300;2024-01-15T08:27:04;42.07;;;37.90;;
3726;SDS011;1879;45.876;12.300;2024-01-15T08:29:31;43.37;;;38.73;;
3726;SDS011;1879;45.876;12.300;2024-01-15T08:32:00;47.00;;;42.00;;
3726;SDS011;1879;45.876;12.300;2024-01-15T08:34:26;44.40;;;40.03;;
3726;SDS011;1879;45.876;12.300;2024-01-15T08:36:53;42.07;;;37.77;;
3726;SDS011;1879;45.876;12.300;2024-01-15T08:39:20;42.17;;;37.80;;
3726;SDS011;1879;45.876;12.300;2024-01-15T08:41:49;42.53;;;37.23;;
3726;SDS011;1879;45.876;12.300;2024-01-15T08:44:15;37.57;;;33.77;;
3726;SDS011;1879;45.876;12.300;2024-01-15T08:46:43;38.00;;;34.00;;
3726;SDS011;1879;45.876;12.300;2024-01-15T08:49:10;36.10;;;32.40;;
3726;SDS011;1879;45.876;12.300;2024-01-15T08:51:37;34.40;;;30.77;;
3726;SDS011;1879;45.876;12.300;2024-01-15T08:54:04;34.73;;;31.17;;
3726;SDS011;1879;45.876;12.300;2024-01-15T08:56:33;33.87;;;30.47;;
3726;SDS011;1879;45.876;12.300;2024-01-15T08:59:01;33.03;;;28.87;;
3726;SDS011;1879;45.876;12.300;2024-01-15T09:01:28;33.33;;;29.90;;
3726;SDS011;1879;45.876;12.300;2024-01-15T09:03:56;32.33;;;29.10;;
3726;SDS011;1879;45.876;12.300;2024-01-15T09:06:23;32.57;;;29.07;;
3726;SDS011;1879;45.876;12.300;2024-01-15T09:08:50;33.70;;;30.33;;
3726;SDS011;1879;45.876;12.300;2024-01-15T09:11:16;30.00;;;26.87;;
3726;SDS011;1879;45.876;12.300;2024-01-15T09:13:43;28.23;;;25.53;;
3726;SDS011;1879;45.876;12.300;2024-01-15T09:16:12;29.13;;;26.23;;
3726;SDS011;1879;45.876;12.300;2024-01-15T09:18:39;30.10;;;26.93;;
3726;SDS011;1879;45.876;12.300;2024-01-15T09:21:05;31.83;;;28.03;;
3726;SDS011;1879;45.876;12.300;2024-01-15T09:23:32;30.27;;;27.13;;
3726;SDS011;1879;45.876;12.300;2024-01-15T09:26:00;28.20;;;25.30;;
3726;SDS011;1879;45.876;12.300;2024-01-15T09:28:27;30.47;;;27.23;;
3726;SDS011;1879;45.876;12.300;2024-01-15T09:30:54;29.27;;;26.10;;
3726;SDS011;1879;45.876;12.300;2024-01-15T09:33:22;32.03;;;28.73;;
3726;SDS011;1879;45.876;12.300;2024-01-15T09:35:49;32.67;;;29.17;;
3726;SDS011;1879;45.876;12.300;2024-01-15T09:38:16;32.73;;;29.33;;
3726;SDS011;1879;45.876;12.300;2024-01-15T09:40:45;32.23;;;29.03;;
3726;SDS011;1879;45.876;12.300;2024-01-15T09:43:12;32.27;;;28.93;;
3726;SDS011;1879;45.876;12.300;2024-01-15T09:45:40;33.10;;;29.50;;
3726;SDS011;1879;45.876;12.300;2024-01-15T09:48:08;32.50;;;28.97;;
3726;SDS011;1879;45.876;12.300;2024-01-15T09:50:37;34.13;;;30.57;;
3726;SDS011;1879;45.876;12.300;2024-01-15T09:53:04;31.23;;;27.47;;
3726;SDS011;1879;45.876;12.300;2024-01-15T09:55:31;29.60;;;26.40;;
3726;SDS011;1879;45.876;12.300;2024-01-15T09:57:59;28.00;;;25.20;;
3726;SDS011;1879;45.876;12.300;2024-01-15T10:00:27;25.17;;;22.20;;
3726;SDS011;1879;45.876;12.300;2024-01-15T10:02:55;26.97;;;24.17;;
3726;SDS011;1879;45.876;12.300;2024-01-15T10:05:22;26.83;;;24.13;;
3726;SDS011;1879;45.876;12.300;2024-01-15T10:07:50;26.40;;;23.63;;
3726;SDS011;1879;45.876;12.300;2024-01-15T10:10:19;26.37;;;23.67;;
3726;SDS011;1879;45.876;12.300;2024-01-15T10:12:47;29.77;;;26.60;;
3726;SDS011;1879;45.876;12.300;2024-01-15T10:15:14;32.00;;;27.90;;
3726;SDS011;1879;45.876;12.300;2024-01-15T10:17:42;34.80;;;30.37;;
3726;SDS011;1879;45.876;12.300;2024-01-15T10:20:09;32.23;;;28.97;;
3726;SDS011;1879;45.876;12.300;2024-01-15T10:22:39;33.23;;;29.80;;
3726;SDS011;1879;45.876;12.300;2024-01-15T10:25:11;32.93;;;29.63;;
3726;SDS011;1879;45.876;12.300;2024-01-15T10:27:38;30.97;;;27.87;;
3726;SDS011;1879;45.876;12.300;2024-01-15T10:30:06;34.67;;;30.93;;
3726;SDS011;1879;45.876;12.300;2024-01-15T10:32:34;32.40;;;29.20;;
3726;SDS011;1879;45.876;12.300;2024-01-15T10:35:01;31.70;;;28.47;;
3726;SDS011;1879;45.876;12.300;2024-01-15T10:37:28;30.70;;;27.03;;
3726;SDS011;1879;45.876;12.300;2024-01-15T10:40:00;31.10;;;27.87;;
3726;SDS011;1879;45.876;12.300;2024-01-15T10:42:30;28.33;;;25.60;;
3726;SDS011;1879;45.876;12.300;2024-01-15T10:44:57;29.03;;;26.10;;
3726;SDS011;1879;45.876;12.300;2024-01-15T10:47:23;31.73;;;28.83;;
3726;SDS011;1879;45.876;12.300;2024-01-15T10:49:50;31.63;;;28.40;;
3726;SDS011;1879;45.876;12.300;2024-01-15T10:52:18;33.33;;;30.03;;
3726;SDS011;1879;45.876;12.300;2024-01-15T10:54:45;37.33;;;33.27;;
3726;SDS011;1879;45.876;12.300;2024-01-15T10:57:13;37.57;;;33.73;;
3726;SDS011;1879;45.876;12.300;2024-01-15T10:59:43;43.53;;;39.00;;
3726;SDS011;1879;45.876;12.300;2024-01-15T11:02:11;42.07;;;37.57;;
3726;SDS011;1879;45.876;12.300;2024-01-15T11:04:39;44.30;;;39.60;;
3726;SDS011;1879;45.876;12.300;2024-01-15T11:07:06;43.10;;;38.57;;
3726;SDS011;1879;45.876;12.300;2024-01-15T11:09:36;44.50;;;39.70;;
3726;SDS011;1879;45.876;12.300;2024-01-15T11:12:06;41.80;;;37.53;;
3726;SDS011;1879;45.876;12.300;2024-01-15T11:14:38;41.77;;;37.27;;
3726;SDS011;1879;45.876;12.300;2024-01-15T11:17:10;39.63;;;35.43;;
3726;SDS011;1879;45.876;12.300;2024-01-15T11:19:38;40.07;;;35.80;;
3726;SDS011;1879;45.876;12.300;2024-01-15T11:22:08;39.07;;;35.17;;
3726;SDS011;1879;45.876;12.300;2024-01-15T11:24:37;40.67;;;35.73;;
3726;SDS011;1879;45.876;12.300;2024-01-15T11:27:05;39.90;;;35.87;;
3726;SDS011;1879;45.876;12.300;2024-01-15T11:29:33;37.83;;;33.73;;
3726;SDS011;1879;45.876;12.300;2024-01-15T11:32:04;38.17;;;34.40;;
3726;SDS011;1879;45.876;12.300;2024-01-15T11:34:53;38.87;;;34.93;;
3726;SDS011;1879;45.876;12.300;2024-01-15T11:37:23;37.03;;;33.40;;
3726;SDS011;1879;45.876;12.300;2024-01-15T11:39:51;38.00;;;34.30;;
3726;SDS011;1879;45.876;12.300;2024-01-15T11:42:20;37.27;;;33.43;;
3726;SDS011;1879;45.876;12.300;2024-01-15T11:44:48;36.90;;;33.03;;
3726;SDS011;1879;45.876;12.300;2024-01-15T11:47:15;37.83;;;34.47;;
3726;SDS011;1879;45.876;12.300;2024-01-15T11:49:57;34.87;;;31.63;;
3726;SDS011;1879;45.876;12.300;2024-01-15T11:52:28;33.27;;;30.23;;
3726;SDS011;1879;45.876;12.300;2024-01-15T11:55:07;36.13;;;32.97;;
3726;SDS011;1879;45.876;12.300;2024-01-15T11:57:42;34.57;;;31.20;;
3726;SDS011;1879;45.876;12.300;2024-01-15T12:00:13;34.60;;;31.60;;
3726;SDS011;1879;45.876;12.300;2024-01-15T12:02:41;32.83;;;30.13;;
3726;SDS011;1879;45.876;12.300;2024-01-15T12:05:14;31.67;;;28.90;;
3726;SDS011;1879;45.876;12.300;2024-01-15T12:07:44;35.17;;;31.80;;
3726;SDS011;1879;45.876;12.300;2024-01-15T12:10:13;33.80;;;31.00;;
3726;SDS011;1879;45.876;12.300;2024-01-15T12:12:45;33.20;;;30.00;;
3726;SDS011;1879;45.876;12.300;2024-01-15T12:15:27;34.27;;;31.37;;
3726;SDS011;1879;45.876;12.300;2024-01-15T12:17:56;33.93;;;30.90;;
3726;SDS011;1879;45.876;12.300;2024-01-15T12:20:33;34.07;;;30.93;;
3726;SDS011;1879;45.876;12.300;2024-01-15T12:23:01;32.70;;;29.93;;
3726;SDS011;1879;45.876;12.300;2024-01-15T12:25:29;32.33;;;29.40;;
3726;SDS011;1879;45.876;12.300;2024-01-15T12:28:00;32.23;;;29.50;;
3726;SDS011;1879;45.876;12.300;2024-01-15T12:30:27;32.50;;;29.70;;
3726;SDS011;1879;45.876;12.300;2024-01-15T12:32:57;32.73;;;29.60;;
3726;SDS011;1879;45.876;12.300;2024-01-15T12:35:34;34.90;;;31.97;;
3726;SDS011;1879;45.876;12.300;2024-01-15T12:38:08;33.70;;;30.70;;
3726;SDS011;1879;45.876;12.300;2024-01-15T12:41:09;36.93;;;33.73;;
3726;SDS011;1879;45.876;12.300;2024-01-15T12:43:36;37.43;;;34.23;;
3726;SDS011;1879;45.876;12.300;2024-01-15T12:46:05;37.90;;;34.40;;
3726;SDS011;1879;45.876;12.300;2024-01-15T12:48:32;38.73;;;35.33;;
3726;SDS011;1879;45.876;12.300;2024-01-15T12:51:01;41.87;;;38.20;;
3726;SDS011;1879;45.876;12.300;2024-01-15T12:53:32;39.60;;;36.20;;
3726;SDS011;1879;45.876;12.300;2024-01-15T12:55:59;38.57;;;35.30;;
3726;SDS011;1879;45.876;12.300;2024-01-15T12:58:26;38.37;;;34.97;;
3726;SDS011;1879;45.876;12.300;2024-01-15T13:00:53;39.00;;;35.50;;
3726;SDS011;1879;45.876;12.300;2024-01-15T13:03:22;39.43;;;35.80;;
3726;SDS011;1879;45.876;12.300;2024-01-15T13:05:48;36.50;;;33.13;;
3726;SDS011;1879;45.876;12.300;2024-01-15T13:08:19;37.20;;;34.00;;
3726;SDS011;1879;45.876;12.300;2024-01-15T13:10:47;39.03;;;35.60;;
3726;SDS011;1879;45.876;12.300;2024-01-15T13:13:14;37.50;;;34.17;;
3726;SDS011;1879;45.876;12.300;2024-01-15T13:15:41;40.17;;;36.50;;
3726;SDS011;1879;45.876;12.300;2024-01-15T13:18:08;42.50;;;38.60;;
3726;SDS011;1879;45.876;12.300;2024-01-15T13:20:35;42.63;;;38.47;;
3726;SDS011;1879;45.876;12.300;2024-01-15T13:23:02;40.20;;;36.60;;
3726;SDS011;1879;45.876;12.300;2024-01-15T13:25:31;39.47;;;35.77;;
3726;SDS011;1879;45.876;12.300;2024-01-15T13:27:58;40.43;;;36.63;;
3726;SDS011;1879;45.876;12.300;2024-01-15T13:30:25;40.97;;;37.27;;
3726;SDS011;1879;45.876;12.300;2024-01-15T13:32:52;39.63;;;35.93;;
3726;SDS011;1879;45.876;12.300;2024-01-15T13:35:21;39.00;;;35.30;;
3726;SDS011;1879;45.876;12.300;2024-01-15T13:37:48;38.47;;;34.57;;
3726;SDS011;1879;45.876;12.300;2024-01-15T13:40:15;37.13;;;33.37;;
3726;SDS011;1879;45.876;12.300;2024-01-15T13:42:46;37.03;;;33.63;;
3726;SDS011;1879;45.876;12.300;2024-01-15T13:45:13;36.27;;;32.57;;
3726;SDS011;1879;45.876;12.300;2024-01-15T13:47:41;38.30;;;34.70;;
3726;SDS011;1879;45.876;12.300;2024-01-15T13:50:08;38.03;;;34.30;;
3726;SDS011;1879;45.876;12.300;2024-01-15T13:52:36;37.43;;;33.80;;
3726;SDS011;1879;45.876;12.300;2024-01-15T13:55:03;33.70;;;30.60;;
3726;SDS011;1879;45.876;12.300;2024-01-15T13:57:31;35.30;;;32.00;;
3726;SDS011;1879;45.876;12.300;2024-01-15T13:59:59;38.00;;;34.40;;
3726;SDS011;1879;45.876;12.300;2024-01-15T14:02:26;38.13;;;34.43;;
3726;SDS011;1879;45.876;12.300;2024-01-15T14:04:53;37.70;;;34.27;;
3726;SDS011;1879;45.876;12.300;2024-01-15T14:07:20;41.53;;;37.83;;
3726;SDS011;1879;45.876;12.300;2024-01-15T14:09:47;39.80;;;36.20;;
3726;SDS011;1879;45.876;12.300;2024-01-15T14:12:16;41.53;;;37.80;;
3726;SDS011;1879;45.876;12.300;2024-01-15T14:14:43;42.77;;;38.37;;
3726;SDS011;1879;45.876;12.300;2024-01-15T14:17:11;41.43;;;37.73;;
3726;SDS011;1879;45.876;12.300;2024-01-15T14:19:38;43.17;;;39.30;;
3726;SDS011;1879;45.876;12.300;2024-01-15T14:22:05;46.57;;;41.63;;
3726;SDS011;1879;45.876;12.300;2024-01-15T14:24:32;48.40;;;43.87;;
3726;SDS011;1879;45.876;12.300;2024-01-15T14:26:59;49.70;;;45.03;;
3726;SDS011;1879;45.876;12.300;2024-01-15T14:29:26;51.10;;;46.17;;
3726;SDS011;1879;45.876;12.300;2024-01-15T14:31:53;51.77;;;46.57;;
3726;SDS011;1879;45.876;12.300;2024-01-15T14:34:21;50.27;;;45.63;;
3726;SDS011;1879;45.876;12.300;2024-01-15T14:36:49;53.93;;;48.57;;